Time;durP1;ratioP1;P1;durP2;ratioP2;P2;SDS_P1;SDS_P2;PMS_P1;PMS_P2;Temp;Humidity;BMP_temperature;BMP_pressure;BME280_temperature;BME280_humidity;BME280_pressure;Samples;Min_cycle;Max_cycle;Signal;HPM_P1;HPM_P2
2021/01/26 00:00:12;;;;;;;21.73;9.80;;;;;;;-0.61;88.51;98553.91;4977814;28;20389;-70
2021/01/26 00:02:38;;;;;;;18.85;10.05;;;;;;;-0.73;89.08;98551.38;4982323;28;20018;-70
2021/01/26 00:05:04;;;;;;;21.88;11.02;;;;;;;-0.74;90.05;98562.97;4984935;28;20485;-70
2021/01/26 00:07:29;;;;;;;19.52;10.25;;;;;;;-0.81;90.14;98553.03;4992704;28;20026;-70
2021/01/26 00:09:55;;;;;;;18.85;10.57;;;;;;;-0.88;90.12;98563.38;4976760;28;20058;-70
2021/01/26 00:12:20;;;;;;;24.08;10.82;;;;;;;-0.98;90.53;98565.16;4979028;28;20084;-70
2021/01/26 00:14:45;;;;;;;20.00;10.48;;;;;;;-1.23;91.10;98543.47;4986797;28;20393;-70
2021/01/26 00:17:11;;;;;;;22.92;10.68;;;;;;;-1.21;91.09;98565.38;4977427;28;20035;-70
2021/01/26 00:19:36;;;;;;;20.17;10.65;;;;;;;-1.30;91.51;98566.19;4976988;28;20026;-70
2021/01/26 00:22:01;;;;;;;20.85;10.77;;;;;;;-1.36;91.17;98569.41;4980304;28;20041;-70
2021/01/26 00:24:26;;;;;;;23.73;11.50;;;;;;;-1.35;91.82;98573.72;4994801;28;20077;-70
2021/01/26 00:26:52;;;;;;;24.25;11.55;;;;;;;-1.32;91.89;98570.78;4975274;28;20022;-70
2021/01/26 00:29:17;;;;;;;18.17;10.13;;;;;;;-1.33;91.85;98579.75;4980473;28;20034;-71
2021/01/26 00:31:42;;;;;;;19.67;10.48;;;;;;;-1.28;91.87;98560.75;4995907;28;20027;-71
2021/01/26 00:34:08;;;;;;;22.75;11.43;;;;;;;-1.07;91.66;98569.50;4978903;28;20090;-70
2021/01/26 00:36:33;;;;;;;23.23;11.82;;;;;;;-1.10;91.74;98580.38;4977302;28;20555;-70
2021/01/26 00:38:58;;;;;;;26.73;12.55;;;;;;;-1.07;91.56;98572.16;4990820;28;20039;-70
2021/01/26 00:41:23;;;;;;;23.13;12.02;;;;;;;-1.09;91.61;98575.91;4976920;28;20038;-70
2021/01/26 00:43:49;;;;;;;26.70;13.43;;;;;;;-1.28;91.31;98552.78;4981642;28;20097;-70
2021/01/26 00:46:14;;;;;;;22.50;12.32;;;;;;;-1.19;91.42;98576.69;4993346;28;20031;-70
2021/01/26 00:48:39;;;;;;;23.52;12.68;;;;;;;-1.19;91.85;98576.69;4982047;28;20057;-70
2021/01/26 00:51:05;;;;;;;24.52;12.77;;;;;;;-1.23;91.77;98577.97;4992939;28;20061;-71
2021/01/26 00:53:30;;;;;;;23.38;11.95;;;;;;;-1.34;91.67;98575.38;4983372;28;20026;-70
2021/01/26 00:55:55;;;;;;;26.70;11.65;;;;;;;-1.33;91.82;98577.09;4980317;28;20041;-70
2021/01/26 00:58:20;;;;;;;18.65;10.43;;;;;;;-1.34;92.42;98578.91;4985105;28;20030;-70
2021/01/26 01:00:46;;;;;;;19.83;11.05;;;;;;;-1.38;92.40;98574.00;4995705;28;20030;-70
2021/01/26 01:03:11;;;;;;;19.15;9.95;;;;;;;-1.29;91.61;98575.81;4985090;28;20038;-70
2021/01/26 01:05:36;;;;;;;22.02;9.60;;;;;;;-1.32;92.01;98581.41;4979712;28;20037;-70
2021/01/26 01:08:03;;;;;;;18.15;9.88;;;;;;;-1.22;92.52;98587.59;4989939;28;20464;-70
2021/01/26 01:10:31;;;;;;;19.08;9.50;;;;;;;-1.20;91.84;98580.34;4980566;28;20029;-70
2021/01/26 01:12:56;;;;;;;18.17;8.65;;;;;;;-1.05;91.92;98578.13;4980110;28;20105;-70
2021/01/26 01:15:23;;;;;;;18.35;8.68;;;;;;;-1.07;90.93;98580.13;4993041;28;20480;-70
2021/01/26 01:17:49;;;;;;;15.70;8.38;;;;;;;-1.21;90.96;98577.81;4976745;28;20039;-70
2021/01/26 01:20:17;;;;;;;19.75;10.55;;;;;;;-1.16;90.94;98589.69;4994369;28;20034;-70
2021/01/26 01:22:42;;;;;;;22.30;11.40;;;;;;;-1.10;91.76;98596.31;4977404;28;20105;-70
2021/01/26 01:25:08;;;;;;;24.67;11.27;;;;;;;-1.02;91.74;98595.63;4974935;28;20113;-70
2021/01/26 01:27:33;;;;;;;23.83;11.13;;;;;;;-0.91;90.83;98596.38;4979611;28;20424;-70
2021/01/26 01:29:58;;;;;;;25.75;10.32;;;;;;;-0.89;90.50;98604.22;4994873;28;20034;-70
2021/01/26 01:32:24;;;;;;;22.38;10.90;;;;;;;-0.89;90.71;98609.50;4990826;28;20113;-70
2021/01/26 01:34:49;;;;;;;22.50;11.02;;;;;;;-0.89;90.29;98605.03;4987393;28;20104;-70
2021/01/26 01:37:14;;;;;;;19.77;9.52;;;;;;;-0.82;90.47;98615.09;4994002;28;20401;-70
2021/01/26 01:39:39;;;;;;;18.30;9.30;;;;;;;-0.76;90.10;98618.06;4994617;28;20033;-70
2021/01/26 01:42:14;;;;;;;23.13;10.20;;;;;;;-0.78;90.27;98620.03;4994073;28;20066;-70
2021/01/26 01:44:40;;;;;;;17.20;8.77;;;;;;;-0.82;89.60;98610.63;4994355;28;20499;-70
2021/01/26 01:47:15;;;;;;;21.65;9.73;;;;;;;-0.71;89.54;98628.28;4992437;28;20038;-70
2021/01/26 01:49:44;;;;;;;20.48;9.00;;;;;;;-0.70;89.19;98617.53;4993352;28;20404;-70
2021/01/26 01:52:15;;;;;;;16.45;8.95;;;;;;;-0.72;89.25;98622.13;4989418;28;20066;-70
2021/01/26 01:54:47;;;;;;;16.65;8.40;;;;;;;-0.69;88.89;98629.81;4994262;28;20042;-70
2021/01/26 01:57:21;;;;;;;17.15;8.75;;;;;;;-0.68;89.08;98628.03;4976232;28;20030;-70
2021/01/26 01:59:52;;;;;;;15.82;9.07;;;;;;;-0.64;88.45;98628.56;4991333;28;20025;-70
2021/01/26 02:02:18;;;;;;;19.05;8.93;;;;;;;-0.70;88.11;98625.50;4976610;28;20058;-70
2021/01/26 02:04:43;;;;;;;19.55;8.65;;;;;;;-0.70;87.93;98633.47;4981778;28;21907;-70
2021/01/26 02:07:11;;;;;;;16.23;8.20;;;;;;;-0.67;87.72;98633.19;4994190;28;20026;-70
2021/01/26 02:09:39;;;;;;;14.27;7.25;;;;;;;-0.64;87.61;98633.88;4976647;28;20026;-70
2021/01/26 02:12:06;;;;;;;14.93;8.23;;;;;;;-0.67;87.92;98635.00;4989040;28;20026;-70
2021/01/26 02:14:35;;;;;;;17.98;7.97;;;;;;;-0.60;86.98;98645.91;4982843;28;20505;-70
2021/01/26 02:17:18;;;;;;;14.77;7.40;;;;;;;-0.64;86.83;98644.53;4974828;28;20558;-70
2021/01/26 02:20:08;;;;;;;16.83;7.05;;;;;;;-0.64;86.52;98636.56;4989362;28;20493;-70
2021/01/26 02:22:39;;;;;;;13.52;7.28;;;;;;;-0.62;86.51;98642.56;4992144;28;20038;-70
2021/01/26 02:25:23;;;;;;;15.68;7.35;;;;;;;-0.60;86.10;98629.97;4993429;28;20502;-70
2021/01/26 02:28:06;;;;;;;15.93;7.55;;;;;;;-0.68;86.39;98639.47;4979915;28;20022;-70
2021/01/26 02:30:47;;;;;;;17.50;7.40;;;;;;;-0.71;86.49;98639.75;4984428;28;20465;-70
2021/01/26 02:33:35;;;;;;;21.02;8.32;;;;;;;-0.75;86.92;98633.03;4974295;28;20088;-70
2021/01/26 02:36:19;;;;;;;19.07;8.37;;;;;;;-0.83;87.17;98640.84;4981018;28;20029;-70
2021/01/26 02:39:16;;;;;;;18.83;8.13;;;;;;;-0.84;87.21;98639.13;4990697;28;20027;-70
2021/01/26 02:41:56;;;;;;;20.70;9.02;;;;;;;-0.94;87.24;98630.31;4980868;28;20089;-70
2021/01/26 02:44:47;;;;;;;17.77;8.45;;;;;;;-1.01;87.79;98637.13;4980425;28;20022;-70
2021/01/26 02:47:45;;;;;;;20.30;9.70;;;;;;;-1.07;88.04;98633.22;4992713;28;20026;-70
2021/01/26 02:50:48;;;;;;;19.67;9.10;;;;;;;-1.05;87.72;98641.03;4973971;28;20069;-70
2021/01/26 02:53:27;;;;;;;22.13;9.30;;;;;;;-1.05;87.90;98630.41;4975360;28;20093;-70
2021/01/26 02:56:05;;;;;;;20.85;10.18;;;;;;;-1.17;88.17;98643.78;4973994;28;20038;-70
2021/01/26 02:58:36;;;;;;;17.97;7.93;;;;;;;-1.21;88.60;98639.69;4996142;28;20424;-69
2021/01/26 03:01:04;;;;;;;23.50;10.93;;;;;;;-1.22;87.99;98629.22;4987329;28;20026;-70
2021/01/26 03:03:35;;;;;;;26.08;11.32;;;;;;;-1.17;88.56;98638.47;4993260;28;20022;-70
2021/01/26 03:06:15;;;;;;;25.35;10.60;;;;;;;-1.14;87.67;98647.97;4993174;28;20037;-70
2021/01/26 03:08:49;;;;;;;20.55;9.13;;;;;;;-1.09;87.67;98629.84;4985357;28;20031;-69
2021/01/26 03:11:31;;;;;;;23.02;9.60;;;;;;;-1.12;87.79;98632.78;4987804;28;20484;-70
2021/01/26 03:14:13;;;;;;;21.48;8.70;;;;;;;-1.18;87.83;98612.91;4986638;28;20030;-70
2021/01/26 03:16:42;;;;;;;24.88;9.43;;;;;;;-1.02;87.47;98636.31;4973463;28;20062;-70
2021/01/26 03:19:13;;;;;;;;;;;;;;;-0.98;87.73;98653.63;4974412;28;20023;-69
2021/01/26 03:21:43;;;;;;;19.27;8.20;;;;;;;-1.07;87.41;98621.72;4985243;28;20000;-69
2021/01/26 03:24:14;;;;;;;21.08;8.77;;;;;;;-0.92;87.11;98649.59;4993144;28;20076;-69
2021/01/26 03:26:40;;;;;;;17.60;9.02;;;;;;;-0.93;87.27;98640.78;4992991;28;20023;-70
2021/01/26 03:29:07;;;;;;;20.88;9.57;;;;;;;-0.88;87.06;98637.75;5016559;23;20072;-71
2021/01/26 03:31:39;;;;;;;19.67;8.93;;;;;;;-0.78;86.64;98641.28;4998137;28;20065;-71
2021/01/26 03:34:04;;;;;;;17.38;8.52;;;;;;;-0.89;86.78;98606.84;5001224;28;20031;-72
2021/01/26 03:36:30;;;;;;;24.20;8.63;;;;;;;-0.78;86.90;98627.16;5010784;28;20514;-72
2021/01/26 03:38:56;;;;;;;14.65;7.38;;;;;;;-0.67;86.36;98619.06;5004205;28;20019;-73
2021/01/26 03:41:22;;;;;;;17.70;7.63;;;;;;;-0.58;86.07;98631.50;5005029;28;20054;-71
2021/01/26 03:43:48;;;;;;;15.90;7.38;;;;;;;-0.59;85.69;98616.56;4994859;28;20076;-72
2021/01/26 03:46:44;;;;;;;18.50;8.27;;;;;;;-0.52;85.82;98625.66;4997367;28;20125;-74
2021/01/26 03:49:43;;;;;;;16.90;7.78;;;;;;;-0.55;86.15;98623.28;4982683;28;20428;-74
2021/01/26 03:52:36;;;;;;;13.30;7.18;;;;;;;-0.55;86.06;98622.44;4996025;28;20167;-74
2021/01/26 03:55:22;;;;;;;18.83;7.30;;;;;;;-0.53;85.70;98625.78;4991209;28;20045;-73
2021/01/26 03:58:09;;;;;;;13.13;6.80;;;;;;;-0.49;85.59;98630.69;4993642;28;20027;-73
2021/01/26 04:00:48;;;;;;;16.00;7.00;;;;;;;-0.48;85.93;98639.50;4990714;28;20396;-73
2021/01/26 04:03:37;;;;;;;;;;;;;;;-0.49;85.74;98638.69;4979825;28;20058;-73
2021/01/26 04:06:19;;;;;;;14.00;6.25;;;;;;;-0.50;85.42;98636.13;5013359;28;19909;-75
2021/01/26 04:08:55;;;;;;;14.35;6.72;;;;;;;-0.38;84.98;98644.84;5006623;28;20027;-75
2021/01/26 04:11:22;;;;;;;13.82;6.80;;;;;;;-0.38;85.32;98647.50;4996643;28;20034;-75
2021/01/26 04:13:57;;;;;;;13.40;6.57;;;;;;;-0.38;85.28;98660.78;4997385;28;20022;-75
2021/01/26 04:16:27;;;;;;;13.55;7.03;;;;;;;-0.38;85.03;98643.03;4997124;28;20038;-75
2021/01/26 04:18:54;;;;;;;14.95;6.88;;;;;;;-0.39;85.00;98646.66;4994611;28;20037;-75
2021/01/26 04:21:20;;;;;;;13.23;6.70;;;;;;;-0.32;84.98;98645.13;4997301;28;20041;-74
2021/01/26 04:23:54;;;;;;;14.65;6.90;;;;;;;-0.33;84.85;98651.44;5006961;28;20020;-75
2021/01/26 04:26:20;;;;;;;19.00;7.38;;;;;;;-0.38;85.02;98651.00;5012712;28;20061;-75
2021/01/26 04:28:49;;;;;;;15.02;6.38;;;;;;;-0.28;85.00;98649.19;4993832;28;20022;-75
2021/01/26 04:31:16;;;;;;;11.75;5.63;;;;;;;-0.25;85.33;98664.03;5014529;28;20037;-75
2021/01/26 04:33:43;;;;;;;13.57;6.22;;;;;;;-0.27;85.35;98658.00;5000110;28;20041;-75
2021/01/26 04:36:11;;;;;;;13.57;6.43;;;;;;;-0.23;85.54;98664.75;4985934;28;20098;-75
2021/01/26 04:38:36;;;;;;;11.82;5.53;;;;;;;-0.39;85.69;98654.66;5010985;28;20031;-75
2021/01/26 04:41:29;;;;;;;11.93;5.68;;;;;;;-0.26;86.43;98665.03;4995998;28;20519;-75
2021/01/26 04:44:13;;;;;;;9.63;5.05;;;;;;;-0.18;85.30;98666.97;5014620;28;20022;-75
2021/01/26 04:46:48;;;;;;;8.73;4.90;;;;;;;-0.22;85.94;98651.28;4995414;28;20033;-75
2021/01/26 04:49:34;;;;;;;10.73;4.72;;;;;;;-0.28;86.07;98659.81;4989349;28;20058;-74
2021/01/26 04:52:17;;;;;;;10.57;4.40;;;;;;;-0.19;86.07;98655.50;4994881;28;20033;-76
2021/01/26 04:55:10;;;;;;;11.00;5.40;;;;;;;-0.31;85.75;98654.78;5009793;28;20038;-72
2021/01/26 04:58:03;;;;;;;17.98;5.38;;;;;;;-0.29;86.09;98655.50;4980307;28;20026;-74
2021/01/26 05:00:47;;;;;;;11.82;5.20;;;;;;;-0.33;85.93;98659.41;4981813;28;20049;-74
2021/01/26 05:03:28;;;;;;;10.55;3.65;;;;;;;-0.29;85.22;98662.63;4984923;28;20245;-75
2021/01/26 05:05:59;;;;;;;10.48;4.63;;;;;;;-0.22;85.34;98659.25;4994043;28;20022;-75
2021/01/26 05:08:30;;;;;;;10.77;4.50;;;;;;;-0.23;85.56;98664.75;4993846;28;20081;-75
2021/01/26 05:11:11;;;;;;;8.90;3.78;;;;;;;-0.19;84.81;98657.31;4988114;28;20031;-77
2021/01/26 05:13:41;;;;;;;9.48;3.70;;;;;;;-0.14;84.63;98663.06;4974026;28;20097;-75
2021/01/26 05:16:14;;;;;;;10.00;3.58;;;;;;;-0.20;84.80;98659.13;4990839;28;20034;-80
2021/01/26 05:18:56;;;;;;;7.88;3.60;;;;;;;-0.04;84.82;98670.06;4994654;28;20022;-77
2021/01/26 05:21:38;;;;;;;12.52;3.55;;;;;;;0.01;84.23;98668.81;4987809;28;20114;-78
2021/01/26 05:24:13;;;;;;;11.80;3.45;;;;;;;0.05;83.92;98667.53;4986946;28;20398;-78
2021/01/26 05:26:39;;;;;;;7.80;3.25;;;;;;;0.02;83.85;98659.84;4993548;28;20030;-80
2021/01/26 05:29:04;;;;;;;7.32;3.35;;;;;;;0.05;83.82;98652.41;4993779;28;20547;-78
2021/01/26 05:31:32;;;;;;;6.18;2.88;;;;;;;0.09;83.58;98651.16;4988526;28;20522;-79
2021/01/26 05:34:04;;;;;;;8.23;2.88;;;;;;;0.12;83.35;98663.34;4992823;28;20113;-79
2021/01/26 05:36:30;;;;;;;8.50;3.28;;;;;;;0.10;83.75;98660.81;4994169;28;20030;-81
2021/01/26 05:38:55;;;;;;;5.13;2.60;;;;;;;0.04;83.34;98644.59;4999195;28;20033;-81
2021/01/26 05:41:21;;;;;;;8.20;2.92;;;;;;;0.14;83.03;98651.59;4998887;28;20030;-80
2021/01/26 05:43:48;;;;;;;10.70;3.05;;;;;;;0.19;82.91;98670.63;4993668;28;20041;-80
2021/01/26 05:46:32;;;;;;;7.38;2.58;;;;;;;0.25;83.14;98687.84;4997078;28;20484;-75
2021/01/26 05:48:57;;;;;;;7.35;2.47;;;;;;;0.15;83.61;98676.34;4993917;28;20037;-78
2021/01/26 05:51:27;;;;;;;6.97;2.53;;;;;;;0.19;83.79;98670.63;4994038;28;20105;-77
2021/01/26 05:53:56;;;;;;;6.40;2.55;;;;;;;0.14;82.48;98662.22;4973665;28;20069;-75
2021/01/26 05:56:22;;;;;;;4.22;1.73;;;;;;;0.29;82.87;98680.41;4985010;28;20090;-73
2021/01/26 05:58:48;;;;;;;6.15;3.00;;;;;;;0.18;82.70;98670.75;5009707;28;20026;-75
2021/01/26 06:01:22;;;;;;;10.50;2.90;;;;;;;0.28;82.79;98689.38;4994489;28;20049;-74
2021/01/26 06:04:11;;;;;;;10.18;2.80;;;;;;;0.29;82.55;98680.41;4993701;28;20115;-74
2021/01/26 06:06:52;;;;;;;5.57;2.58;;;;;;;0.21;82.81;98676.66;4974592;28;20027;-75
2021/01/26 06:09:37;;;;;;;10.13;2.47;;;;;;;0.29;82.55;98677.75;4974513;28;20030;-75
2021/01/26 06:12:14;;;;;;;9.15;2.30;;;;;;;0.40;82.08;98690.91;4991429;28;20026;-75
2021/01/26 06:14:42;;;;;;;5.22;2.20;;;;;;;0.34;81.58;98683.47;4991437;28;20038;-75
2021/01/26 06:17:21;;;;;;;4.15;1.98;;;;;;;0.35;82.09;98690.50;4993143;28;20026;-75
2021/01/26 06:20:01;;;;;;;;;;;;;;;0.36;82.30;98694.84;4992840;28;20037;-77
2021/01/26 06:22:26;;;;;;;;;;;;;;;0.38;81.64;98706.19;4994434;28;19914;-76
2021/01/26 06:24:52;;;;;;;3.58;1.70;;;;;;;0.39;81.20;98699.88;4994568;28;19909;-74
2021/01/26 06:27:34;;;;;;;5.65;2.17;;;;;;;0.36;81.54;98698.31;4986005;28;20022;-73
2021/01/26 06:30:12;;;;;;;5.95;2.08;;;;;;;0.39;81.31;98707.84;4991801;28;20026;-75
2021/01/26 06:33:05;;;;;;;4.28;1.80;;;;;;;0.40;81.52;98706.88;4992696;28;20388;-78
2021/01/26 06:35:47;;;;;;;6.53;2.13;;;;;;;0.42;81.63;98707.59;5002166;28;20022;-75
2021/01/26 06:38:29;;;;;;;7.72;2.30;;;;;;;0.35;81.43;98703.81;4991512;28;20026;-71
2021/01/26 06:41:22;;;;;;;7.97;2.42;;;;;;;0.41;81.71;98720.03;4988190;28;20101;-73
2021/01/26 06:44:00;;;;;;;6.60;2.13;;;;;;;0.30;81.67;98698.06;4994458;28;20057;-74
2021/01/26 06:47:03;;;;;;;5.13;1.98;;;;;;;0.39;82.14;98722.03;4990391;28;20030;-73
2021/01/26 06:49:40;;;;;;;4.35;2.33;;;;;;;0.40;82.08;98726.34;4993218;28;20026;-77
2021/01/26 06:52:19;;;;;;;14.15;2.40;;;;;;;0.42;82.07;98719.06;4988436;28;20030;-76
2021/01/26 06:54:59;;;;;;;4.72;1.92;;;;;;;0.38;81.73;98707.00;4974841;28;20382;-75
2021/01/26 06:57:52;;;;;;;6.15;2.10;;;;;;;0.42;81.92;98723.56;4994143;28;20034;-73
2021/01/26 07:00:51;;;;;;;5.35;2.33;;;;;;;0.41;81.67;98722.69;4987451;28;20042;-72
2021/01/26 07:03:29;;;;;;;4.15;2.10;;;;;;;0.46;81.14;98729.44;4988075;28;20072;-76
2021/01/26 07:06:19;;;;;;;4.28;2.30;;;;;;;0.48;81.63;98743.44;4985059;28;20395;-75
2021/01/26 07:09:01;;;;;;;5.93;2.45;;;;;;;0.43;82.02;98743.88;4991230;28;20081;-74
2021/01/26 07:11:35;;;;;;;9.48;2.50;;;;;;;0.44;81.78;98753.50;4988205;28;20026;-73
2021/01/26 07:14:14;;;;;;;7.63;2.70;;;;;;;0.49;81.41;98745.94;4991044;28;20031;-71
2021/01/26 07:17:06;;;;;;;6.17;2.20;;;;;;;0.54;80.88;98754.34;4991868;28;20113;-75
2021/01/26 07:19:40;;;;;;;8.77;2.58;;;;;;;0.56;81.44;98755.06;4984071;28;20293;-77
2021/01/26 07:22:37;;;;;;;5.78;2.05;;;;;;;0.35;80.92;98722.44;4990000;28;20026;-75
2021/01/26 07:25:45;;;;;;;9.13;2.53;;;;;;;0.57;81.79;98764.72;4975336;28;20019;-77
2021/01/26 07:28:19;;;;;;;6.47;2.50;;;;;;;0.53;81.15;98773.97;4978203;28;20468;-77
2021/01/26 07:30:50;;;;;;;4.15;2.28;;;;;;;0.54;81.79;98782.81;4993161;28;20464;-75
2021/01/26 07:33:33;;;;;;;6.57;2.40;;;;;;;0.55;81.62;98772.03;4991789;28;20031;-75
2021/01/26 07:36:20;;;;;;;7.32;2.92;;;;;;;0.58;81.47;98777.06;4984636;28;20027;-77
2021/01/26 07:39:00;;;;;;;10.80;3.05;;;;;;;0.63;81.44;98776.66;4993251;28;20483;-77
2021/01/26 07:41:44;;;;;;;8.02;3.20;;;;;;;0.59;81.17;98776.06;5008404;28;20491;-80
2021/01/26 07:44:20;;;;;;;10.52;3.05;;;;;;;0.53;82.26;98787.28;4989497;28;20491;-78
2021/01/26 07:46:53;;;;;;;12.90;3.58;;;;;;;0.60;82.24;98784.88;4986671;28;20026;-74
2021/01/26 07:49:22;;;;;;;6.50;3.10;;;;;;;0.63;81.78;98790.78;4984920;28;20121;-75
2021/01/26 07:51:54;;;;;;;8.75;3.35;;;;;;;0.67;82.05;98774.53;4994890;28;20030;-76
2021/01/26 07:54:20;;;;;;;10.88;2.78;;;;;;;0.64;82.15;98784.47;4994497;28;20058;-71
2021/01/26 07:56:45;;;;;;;9.02;3.28;;;;;;;0.56;82.28;98781.69;4993763;28;20053;-71
2021/01/26 07:59:22;;;;;;;6.38;3.25;;;;;;;0.58;82.43;98790.38;4995324;28;20103;-68
2021/01/26 08:01:52;;;;;;;8.23;3.67;;;;;;;0.54;82.20;98791.63;4987970;28;20022;-69
2021/01/26 08:04:17;;;;;;;8.93;3.13;;;;;;;0.63;82.58;98795.28;4981917;28;20031;-71
2021/01/26 08:06:50;;;;;;;10.35;3.17;;;;;;;0.64;81.83;98781.81;4987519;28;20027;-69
2021/01/26 08:09:22;;;;;;;8.38;3.13;;;;;;;0.65;81.83;98787.97;4989754;28;20019;-69
2021/01/26 08:11:58;;;;;;;7.63;3.05;;;;;;;0.67;82.01;98798.50;4984971;28;20114;-71
2021/01/26 08:14:29;;;;;;;12.02;3.10;;;;;;;0.71;81.63;98782.09;4984592;28;20041;-69
2021/01/26 08:16:56;;;;;;;7.05;3.22;;;;;;;0.73;81.53;98788.09;4982199;28;20106;-76
2021/01/26 08:19:31;;;;;;;8.57;3.33;;;;;;;0.73;82.13;98789.94;4990376;28;20030;-73
2021/01/26 08:21:58;;;;;;;10.68;3.65;;;;;;;0.75;81.90;98788.81;4993973;28;20023;-79
2021/01/26 08:24:34;;;;;;;7.03;3.53;;;;;;;0.86;81.81;98802.00;4994390;28;20052;-78
2021/01/26 08:27:31;;;;;;;11.88;4.50;;;;;;;0.76;81.88;98805.63;4998520;28;20125;-74
2021/01/26 08:30:00;;;;;;;17.08;4.53;;;;;;;0.78;81.87;98785.03;4996032;28;20018;-76
2021/01/26 08:32:26;;;;;;;8.63;3.97;;;;;;;0.58;82.73;98800.19;4992412;28;20037;-76
2021/01/26 08:35:04;;;;;;;8.82;3.90;;;;;;;0.58;82.76;98805.50;4993272;28;20030;-77
2021/01/26 08:37:41;;;;;;;9.45;4.50;;;;;;;0.72;82.50;98805.06;4992197;28;20025;-77
2021/01/26 08:40:15;;;;;;;9.18;3.67;;;;;;;0.82;82.16;98805.09;4996531;28;20033;-78
2021/01/26 08:42:40;;;;;;;8.50;3.80;;;;;;;0.71;81.77;98824.72;4994503;28;20029;-74
2021/01/26 08:45:26;;;;;;;9.63;3.42;;;;;;;0.65;82.01;98815.47;4989029;28;20035;-75
2021/01/26 08:47:56;;;;;;;9.05;3.00;;;;;;;0.75;81.71;98815.44;4990854;28;20488;-78
2021/01/26 08:50:24;;;;;;;6.30;3.13;;;;;;;0.82;80.94;98813.91;4993165;28;20027;-75
2021/01/26 08:52:51;;;;;;;9.73;3.07;;;;;;;0.83;80.91;98820.06;4992863;28;20701;-79
2021/01/26 08:55:38;;;;;;;6.43;3.22;;;;;;;0.97;80.30;98806.34;4990624;28;20026;-79
2021/01/26 08:58:05;;;;;;;5.75;2.97;;;;;;;0.95;79.85;98799.47;4995826;28;20041;-77
2021/01/26 09:00:42;;;;;;;5.35;2.90;;;;;;;0.83;80.29;98822.72;4996323;28;20503;-77
2021/01/26 09:03:43;;;;;;;8.93;3.35;;;;;;;0.79;80.15;98832.00;4983885;28;20018;-78
2021/01/26 09:06:33;;;;;;;7.45;2.78;;;;;;;0.96;79.35;98830.44;4970790;28;20117;-76
2021/01/26 09:08:59;;;;;;;14.20;2.80;;;;;;;1.06;79.13;98805.47;4967876;28;20037;-74
2021/01/26 09:11:32;;;;;;;9.90;2.63;;;;;;;1.09;79.23;98829.16;4996047;28;20023;-77
2021/01/26 09:14:34;;;;;;;5.97;2.85;;;;;;;1.04;78.75;98822.56;4996131;28;20480;-74
2021/01/26 09:17:02;;;;;;;5.85;2.60;;;;;;;1.02;78.56;98827.19;4989746;28;20039;-78
2021/01/26 09:19:32;;;;;;;8.88;2.75;;;;;;;1.15;78.17;98830.41;5002357;23;20428;-78
2021/01/26 09:22:11;;;;;;;10.70;2.50;;;;;;;1.06;78.31;98845.41;4975802;28;20034;-80
2021/01/26 09:24:38;;;;;;;6.38;2.47;;;;;;;1.20;78.52;98864.63;4977454;28;20097;-75
2021/01/26 09:27:25;;;;;;;11.60;3.00;;;;;;;1.06;78.64;98856.09;4976304;28;20396;-74
2021/01/26 09:30:20;;;;;;;6.28;2.72;;;;;;;1.25;78.38;98859.69;5065490;22;20035;-74
2021/01/26 09:32:54;;;;;;;9.98;2.63;;;;;;;1.33;77.71;98867.81;4997140;28;20038;-74
2021/01/26 09:35:20;;;;;;;6.50;2.53;;;;;;;1.38;77.78;98878.06;5006938;28;20121;-71
2021/01/26 09:37:45;;;;;;;6.30;2.72;;;;;;;1.27;77.61;98885.22;4990578;28;20043;-70
2021/01/26 09:40:13;;;;;;;6.63;3.03;;;;;;;1.30;78.08;98873.44;4995380;28;20142;-70
2021/01/26 09:42:39;;;;;;;5.88;2.83;;;;;;;1.29;78.15;98888.59;4990377;28;20488;-71
2021/01/26 09:45:10;;;;;;;5.38;2.53;;;;;;;1.19;77.39;98879.78;4994866;28;20068;-74
2021/01/26 09:47:36;;;;;;;6.20;2.65;;;;;;;1.17;77.15;98872.91;4994610;28;20049;-73
2021/01/26 09:50:13;;;;;;;6.43;2.67;;;;;;;1.23;77.12;98889.19;4996070;28;20065;-71
2021/01/26 09:52:40;;;;;;;8.10;2.50;;;;;;;1.04;77.85;98883.84;4987250;28;20045;-70
2021/01/26 09:55:14;;;;;;;8.70;2.90;;;;;;;1.18;77.94;98906.56;4987097;28;20030;-74
2021/01/26 09:57:40;;;;;;;4.88;2.50;;;;;;;1.06;78.01;98866.75;5010528;28;20036;-71
2021/01/26 10:00:10;;;;;;;7.82;2.63;;;;;;;1.45;77.27;98897.84;4994577;28;20030;-73
2021/01/26 10:02:35;;;;;;;;;;;;;;;1.63;76.40;98885.44;4994752;28;20057;-71
2021/01/26 10:05:01;;;;;;;6.78;2.22;;;;;;;1.79;75.95;98890.19;4997285;28;19910;-74
2021/01/26 10:07:26;;;;;;;5.35;2.33;;;;;;;1.94;75.73;98894.06;4996381;28;20037;-74
2021/01/26 10:09:52;;;;;;;4.70;2.25;;;;;;;1.95;75.64;98882.38;4995853;28;20066;-74
2021/01/26 10:12:33;;;;;;;4.70;2.40;;;;;;;1.56;76.67;98888.84;4993999;28;20030;-74
2021/01/26 10:15:15;;;;;;;4.68;2.17;;;;;;;1.72;76.05;98900.56;4996759;28;20026;-76
2021/01/26 10:18:24;;;;;;;9.00;2.67;;;;;;;1.87;76.09;98922.28;4990821;28;20033;-77
2021/01/26 10:20:59;;;;;;;4.07;2.33;;;;;;;1.53;76.19;98904.13;4990595;28;20049;-71
2021/01/26 10:23:43;;;;;;;5.30;2.13;;;;;;;1.39;76.90;98907.25;4993685;28;20026;-70
2021/01/26 10:26:14;;;;;;;4.65;2.20;;;;;;;1.66;76.21;98911.81;4996014;28;20041;-76
2021/01/26 10:29:07;;;;;;;6.43;2.05;;;;;;;1.43;76.17;98916.63;4989919;28;20485;-71
2021/01/26 10:31:42;;;;;;;7.15;2.20;;;;;;;1.42;75.80;98908.78;4980955;28;20093;-73
2021/01/26 10:34:34;;;;;;;5.57;1.85;;;;;;;1.35;76.27;98926.34;4994014;28;20052;-74
2021/01/26 10:37:24;;;;;;;5.82;2.25;;;;;;;1.39;76.42;98925.91;4975695;28;20022;-69
2021/01/26 10:40:11;;;;;;;6.45;2.13;;;;;;;1.34;75.59;98927.28;4984553;28;20082;-69
2021/01/26 10:42:39;;;;;;;8.40;2.40;;;;;;;1.41;75.95;98923.09;4988127;28;20055;-72
2021/01/26 10:45:05;;;;;;;9.35;2.63;;;;;;;1.36;76.02;98931.50;4994875;28;20037;-66
2021/01/26 10:47:35;;;;;;;5.90;2.15;;;;;;;1.34;75.48;98890.84;4999223;28;20037;-67
2021/01/26 10:50:04;;;;;;;3.70;1.85;;;;;;;1.64;74.64;98939.63;4984344;28;20391;-67
2021/01/26 10:52:39;;;;;;;;;;;;;;;1.57;75.24;98947.34;4979268;28;20110;-75
2021/01/26 10:55:06;;;;;;;7.30;2.50;;;;;;;1.64;75.03;98934.28;4996247;28;19913;-68
2021/01/26 10:57:31;;;;;;;3.50;1.95;;;;;;;1.75;75.35;98947.44;4996844;28;20030;-74
2021/01/26 10:59:57;;;;;;;4.70;2.13;;;;;;;1.71;74.69;98932.75;4997216;28;20044;-72
2021/01/26 11:02:22;;;;;;;5.57;2.60;;;;;;;1.46;74.97;98932.34;4997320;28;20034;-73
2021/01/26 11:04:47;;;;;;;5.15;2.35;;;;;;;1.61;75.25;98950.56;4996018;28;20431;-76
2021/01/26 11:07:12;;;;;;;5.85;2.25;;;;;;;1.65;74.69;98935.97;4994851;28;20088;-71
2021/01/26 11:09:38;;;;;;;6.68;2.30;;;;;;;1.54;75.01;98961.78;4996218;28;20117;-67
2021/01/26 11:12:03;;;;;;;6.20;2.47;;;;;;;1.68;74.97;98951.69;5011911;28;20026;-66
2021/01/26 11:14:29;;;;;;;6.88;2.33;;;;;;;1.74;74.70;98959.94;4995685;28;20080;-66
2021/01/26 11:16:54;;;;;;;4.13;2.40;;;;;;;1.62;75.09;98968.25;4993680;28;20030;-72
2021/01/26 11:19:21;;;;;;;4.97;2.10;;;;;;;1.56;74.85;98958.16;4997426;28;20072;-72
2021/01/26 11:21:46;;;;;;;7.10;3.10;;;;;;;1.68;74.84;98952.53;4995974;28;20102;-71
2021/01/26 11:24:12;;;;;;;4.35;2.50;;;;;;;1.79;74.43;98970.19;4999722;28;20022;-72
2021/01/26 11:26:37;;;;;;;9.68;2.95;;;;;;;1.87;74.53;98970.31;4999319;28;20026;-71
2021/01/26 11:29:02;;;;;;;4.20;2.35;;;;;;;1.83;74.54;98976.06;4998543;28;20069;-72
2021/01/26 11:31:28;;;;;;;8.05;2.55;;;;;;;1.97;73.82;98965.81;4994751;28;20042;-66
2021/01/26 11:33:53;;;;;;;5.75;2.58;;;;;;;1.59;74.82;98958.72;4989696;28;20038;-66
2021/01/26 11:36:18;;;;;;;4.10;2.10;;;;;;;1.39;75.53;98954.38;4996415;28;20049;-67
2021/01/26 11:38:44;;;;;;;5.00;2.40;;;;;;;1.56;74.80;98963.50;4997361;28;20093;-67
2021/01/26 11:41:09;;;;;;;4.47;2.33;;;;;;;1.53;74.43;98960.13;4994078;28;20037;-67
2021/01/26 11:43:35;;;;;;;7.55;2.58;;;;;;;1.66;73.52;98940.31;4994430;28;20038;-67
2021/01/26 11:46:01;;;;;;;5.50;2.50;;;;;;;1.72;72.91;98966.41;4995588;28;20034;-68
2021/01/26 11:48:27;;;;;;;5.75;2.83;;;;;;;1.80;73.32;98949.69;4994874;28;20061;-67
2021/01/26 11:50:53;;;;;;;13.43;3.28;;;;;;;1.74;73.45;98946.63;5003342;28;20034;-71
2021/01/26 11:53:21;;;;;;;6.10;2.20;;;;;;;1.89;72.76;98939.00;5017685;28;20048;-70
2021/01/26 11:55:47;;;;;;;6.20;2.38;;;;;;;1.82;73.28;98947.72;5016611;28;20017;-69
2021/01/26 11:58:12;;;;;;;7.90;2.38;;;;;;;2.19;71.94;98966.44;5014571;28;20018;-69
2021/01/26 12:00:38;;;;;;;6.95;2.28;;;;;;;2.32;72.25;98956.25;5015552;28;20065;-68
2021/01/26 12:03:05;;;;;;;6.30;2.42;;;;;;;2.45;71.18;98963.94;5018706;28;20038;-71